Time;durP1;ratioP1;P1;durP2;ratioP2;P2;SDS_P1;SDS_P2;PMS_P1;PMS_P2;Temp;Humidity;BMP_temperature;BMP_pressure;BME280_temperature;BME280_humidity;BME280_pressure;Samples;Min_cycle;Max_cycle;Signal;HPM_P1;HPM_P2
2022/05/12 00:02:14;;;;;;;7.17;4.30;;;16.60;40.90;;;;;;4963426;28;46356;-61
2022/05/12 00:04:41;;;;;;;11.10;4.80;;;16.50;40.70;;;;;;4962991;28;45869;-62
2022/05/12 00:07:06;;;;;;;6.97;4.57;;;16.50;40.70;;;;;;4963000;28;46458;-62
2022/05/12 00:09:32;;;;;;;13.10;4.33;;;16.60;41.80;;;;;;4962949;28;46425;-63
2022/05/12 00:11:58;;;;;;;7.53;4.60;;;16.60;40.50;;;;;;4963334;28;46419;-64
2022/05/12 00:14:24;;;;;;;10.27;4.07;;;16.70;40.30;;;;;;4962835;28;46003;-63
2022/05/12 00:16:50;;;;;;;10.30;4.33;;;16.70;40.10;;;;;;4963019;28;46274;-62
2022/05/12 00:19:15;;;;;;;7.93;4.20;;;16.80;40.10;;;;;;4962413;28;46506;-62
2022/05/12 00:21:41;;;;;;;13.40;4.23;;;16.80;39.80;;;;;;4963207;28;46460;-63
2022/05/12 00:24:07;;;;;;;7.93;4.37;;;16.90;39.90;;;;;;4962111;28;46298;-63
2022/05/12 00:26:36;;;;;;;6.20;4.13;;;16.90;40.00;;;;;;4962264;28;46268;-63
2022/05/12 00:29:06;;;;;;;8.17;3.80;;;16.90;39.90;;;;;;4962497;28;46372;-61
2022/05/12 00:31:34;;;;;;;6.67;4.17;;;16.90;39.90;;;;;;4962742;28;46427;-63
2022/05/12 00:33:59;;;;;;;6.10;4.27;;;16.90;39.90;;;;;;4962199;28;46720;-62
2022/05/12 00:36:25;;;;;;;6.07;4.13;;;16.90;39.90;;;;;;4962232;28;46377;-63
2022/05/12 00:38:51;;;;;;;8.17;4.20;;;16.80;40.00;;;;;;4962291;28;46316;-63
2022/05/12 00:41:17;;;;;;;9.13;4.53;;;16.80;40.30;;;;;;4962471;28;47456;-63
2022/05/12 00:43:47;;;;;;;7.67;3.97;;;16.70;41.60;;;;;;4959348;28;45954;-63
2022/05/12 00:46:16;;;;;;;5.87;3.90;;;16.70;40.50;;;;;;4961856;28;46425;-61
2022/05/12 00:48:42;;;;;;;6.67;4.17;;;16.70;40.40;;;;;;4961622;28;46382;-63
2022/05/12 00:51:11;;;;;;;11.13;4.73;;;16.70;40.40;;;;;;4962149;28;47744;-63
2022/05/12 00:53:37;;;;;;;9.90;4.50;;;16.70;40.40;;;;;;4962352;28;46513;-63
2022/05/12 00:56:07;;;;;;;10.73;4.90;;;16.70;40.50;;;;;;4961760;28;45809;-63
2022/05/12 00:58:34;;;;;;;9.17;4.90;;;16.70;40.60;;;;;;4960147;28;45965;-62
2022/05/12 01:01:05;;;;;;;5.73;4.47;;;16.70;40.60;;;;;;4960746;28;46966;-62
2022/05/12 01:03:31;;;;;;;9.87;4.33;;;16.70;40.90;;;;;;4962131;28;46382;-63
2022/05/12 01:05:58;;;;;;;8.00;4.10;;;16.70;41.10;;;;;;4961505;28;46513;-62
2022/05/12 01:08:24;;;;;;;7.97;4.43;;;16.70;41.10;;;;;;4960730;28;46371;-62
2022/05/12 01:10:55;;;;;;;13.60;4.10;;;16.70;41.10;;;;;;4961867;28;46487;-63
2022/05/12 01:13:21;;;;;;;7.20;4.30;;;16.70;41.30;;;;;;4962037;28;46309;-62
2022/05/12 01:16:01;;;;;;;9.13;4.50;;;16.70;41.10;;;;;;4961989;28;46612;-62
2022/05/12 01:18:29;;;;;;;6.60;4.40;;;16.70;41.10;;;;;;4961303;28;46458;-62
2022/05/12 01:20:56;;;;;;;8.50;4.60;;;16.80;41.00;;;;;;4962898;28;48759;-62
2022/05/12 01:23:31;;;;;;;13.80;4.57;;;16.80;41.00;;;;;;4957618;28;46466;-62
2022/05/12 01:26:00;;;;;;;7.13;3.90;;;16.80;41.10;;;;;;4956162;28;46430;-62
2022/05/12 01:28:26;;;;;;;7.50;5.00;;;16.80;40.90;;;;;;4958874;28;46514;-62
2022/05/12 01:30:51;;;;;;;7.83;4.07;;;16.90;40.90;;;;;;4959492;28;46387;-63
2022/05/12 01:33:17;;;;;;;9.23;4.20;;;16.90;40.80;;;;;;4958631;28;46713;-62
2022/05/12 01:35:43;;;;;;;13.73;4.60;;;16.90;40.70;;;;;;4960317;28;46481;-63
2022/05/12 01:38:08;;;;;;;7.70;3.97;;;16.90;40.80;;;;;;4959868;28;46368;-63
2022/05/12 01:40:34;;;;;;;5.13;3.67;;;16.90;40.60;;;;;;4960201;28;46322;-61
2022/05/12 01:42:59;;;;;;;5.57;3.80;;;17.00;40.50;;;;;;4961730;28;46335;-63
2022/05/12 01:45:26;;;;;;;7.00;3.97;;;17.00;40.30;;;;;;4961277;28;46256;-62
2022/05/12 01:47:52;;;;;;;7.33;4.00;;;17.10;40.20;;;;;;4960058;28;45943;-62
2022/05/12 01:50:20;;;;;;;5.27;3.60;;;17.10;39.90;;;;;;4960292;28;46997;-61
2022/05/12 01:52:45;;;;;;;8.97;4.40;;;17.10;39.90;;;;;;4959254;28;46534;-63
2022/05/12 01:55:13;;;;;;;5.47;3.60;;;17.10;39.90;;;;;;4956143;28;45785;-62
2022/05/12 01:57:43;;;;;;;6.93;3.80;;;17.10;39.90;;;;;;4959342;28;46286;-62
2022/05/12 02:00:12;;;;;;;5.70;3.90;;;17.20;39.90;;;;;;4955773;28;46446;-62
2022/05/12 02:02:39;;;;;;;6.97;3.70;;;17.10;39.80;;;;;;4956317;28;46352;-63
2022/05/12 02:05:09;;;;;;;6.53;3.80;;;17.10;40.00;;;;;;4959354;28;46560;-62
2022/05/12 02:07:39;;;;;;;6.97;3.90;;;17.10;40.20;;;;;;4958522;28;45961;-63
2022/05/12 02:10:07;;;;;;;7.67;3.83;;;17.10;40.30;;;;;;4958091;28;46627;-62
2022/05/12 02:12:33;;;;;;;6.63;3.40;;;17.00;40.40;;;;;;4957121;28;46706;-63
2022/05/12 02:14:58;;;;;;;7.60;3.30;;;16.90;40.60;;;;;;4955990;28;46405;-63
2022/05/12 02:17:24;;;;;;;5.10;3.47;;;16.90;40.60;;;;;;4957953;28;46532;-62
2022/05/12 02:19:50;;;;;;;13.60;3.50;;;17.00;40.40;;;;;;4960206;28;47443;-62
2022/05/12 02:22:16;;;;;;;7.30;3.47;;;17.10;40.10;;;;;;4962510;28;46418;-63
2022/05/12 02:24:42;;;;;;;5.33;3.53;;;17.10;39.70;;;;;;4957640;28;46463;-63
2022/05/12 02:27:07;;;;;;;5.57;3.07;;;17.20;39.60;;;;;;4963606;28;46348;-62
2022/05/12 02:29:33;;;;;;;7.33;3.60;;;17.30;39.40;;;;;;4961240;28;47882;-63
2022/05/12 02:31:58;;;;;;;6.43;3.30;;;17.40;39.20;;;;;;4960693;28;46213;-62
2022/05/12 02:34:24;;;;;;;12.83;4.40;;;17.40;38.90;;;;;;4961016;28;46396;-62
2022/05/12 02:37:01;;;;;;;11.00;3.10;;;17.50;38.80;;;;;;4962142;28;46305;-62
2022/05/12 02:39:29;;;;;;;9.10;3.10;;;17.50;38.80;;;;;;4963088;28;47042;-62
2022/05/12 02:41:55;;;;;;;9.10;3.47;;;17.50;38.50;;;;;;4964381;28;46351;-63
2022/05/12 02:44:21;;;;;;;8.80;3.77;;;17.60;38.70;;;;;;4961882;28;46502;-62
2022/05/12 02:46:46;;;;;;;5.60;3.20;;;17.50;38.60;;;;;;4964565;28;46272;-62
2022/05/12 02:49:12;;;;;;;9.13;3.23;;;17.50;38.60;;;;;;4963078;28;47193;-63
2022/05/12 02:51:37;;;;;;;11.63;3.37;;;17.50;38.60;;;;;;4964126;28;46327;-62
2022/05/12 02:54:03;;;;;;;14.33;4.50;;;17.50;38.60;;;;;;4962753;28;46505;-63
2022/05/12 02:56:29;;;;;;;7.17;3.00;;;17.50;38.60;;;;;;4963178;28;46560;-62
2022/05/12 02:58:54;;;;;;;11.37;2.93;;;17.50;38.60;;;;;;4959102;28;46292;-62
2022/05/12 03:01:21;;;;;;;8.57;2.87;;;17.50;38.40;;;;;;4964228;28;45740;-63
2022/05/12 03:03:46;;;;;;;15.10;3.70;;;17.50;38.40;;;;;;4964524;28;46277;-62
2022/05/12 03:06:13;;;;;;;6.27;3.40;;;17.60;38.30;;;;;;4963554;28;46718;-62
2022/05/12 03:08:42;;;;;;;7.40;3.10;;;17.60;38.00;;;;;;4963399;28;48132;-63
2022/05/12 03:11:08;;;;;;;9.27;3.17;;;17.60;37.90;;;;;;4964377;28;45964;-63
2022/05/12 03:13:34;;;;;;;10.90;3.53;;;17.60;37.80;;;;;;4963720;28;46269;-62
2022/05/12 03:16:00;;;;;;;6.33;3.60;;;17.70;37.80;;;;;;4963970;28;46360;-63
2022/05/12 03:18:25;;;;;;;6.40;4.43;;;17.70;37.70;;;;;;4963625;28;46438;-63
2022/05/12 03:20:51;;;;;;;6.07;3.10;;;17.70;37.70;;;;;;4963974;28;46520;-62
2022/05/12 03:23:18;;;;;;;6.00;3.20;;;17.60;37.60;;;;;;4963525;28;46432;-63
2022/05/12 03:25:44;;;;;;;6.30;3.27;;;17.60;37.50;;;;;;4963907;28;46470;-63
2022/05/12 03:28:10;;;;;;;10.33;3.27;;;17.60;37.70;;;;;;4962911;28;47036;-64
2022/05/12 03:30:36;;;;;;;10.83;3.60;;;17.50;38.00;;;;;;4963298;28;46368;-63
2022/05/12 03:33:02;;;;;;;7.00;3.33;;;17.50;38.30;;;;;;4961741;28;46376;-62
2022/05/12 03:35:28;;;;;;;6.97;3.23;;;17.40;38.30;;;;;;4964352;28;46383;-62
2022/05/12 03:37:54;;;;;;;5.63;3.63;;;17.30;38.30;;;;;;4962488;28;47011;-63
2022/05/12 03:40:20;;;;;;;5.30;3.03;;;17.30;38.50;;;;;;4962772;28;46328;-62
2022/05/12 03:42:46;;;;;;;5.00;2.80;;;17.20;38.50;;;;;;4963637;28;46415;-62
2022/05/12 03:45:13;;;;;;;11.03;3.33;;;17.30;38.70;;;;;;4962232;28;46435;-62
2022/05/12 03:47:41;;;;;;;7.23;3.03;;;17.20;38.70;;;;;;4963564;28;46371;-63
2022/05/12 03:50:17;;;;;;;5.00;3.17;;;17.20;40.10;;;;;;4962763;28;46373;-63
2022/05/12 03:52:42;;;;;;;6.57;3.00;;;17.30;38.80;;;;;;4963318;28;46356;-62
2022/05/12 03:55:11;;;;;;;5.83;3.60;;;17.30;38.60;;;;;;4962058;28;46365;-62
2022/05/12 03:57:38;;;;;;;6.30;3.40;;;17.30;38.70;;;;;;4963252;28;46355;-63
2022/05/12 04:00:06;;;;;;;9.47;3.70;;;17.30;38.60;;;;;;4962257;28;46490;-63
2022/05/12 04:02:32;;;;;;;9.23;2.90;;;17.30;38.60;;;;;;4963599;28;46316;-63
2022/05/12 04:04:58;;;;;;;6.10;3.77;;;17.30;38.60;;;;;;4964067;28;46455;-62
2022/05/12 04:07:25;;;;;;;5.10;3.40;;;17.40;38.30;;;;;;4963322;28;46985;-62
2022/05/12 04:09:51;;;;;;;4.93;3.13;;;17.50;38.30;;;;;;4962670;28;45765;-62
2022/05/12 04:12:17;;;;;;;5.93;3.17;;;17.50;38.10;;;;;;4963526;28;46383;-63
2022/05/12 04:14:43;;;;;;;6.87;3.40;;;17.60;38.10;;;;;;4963230;28;46419;-62
2022/05/12 04:17:13;;;;;;;7.47;3.33;;;17.60;38.10;;;;;;4963332;28;46648;-62
2022/05/12 04:19:42;;;;;;;6.53;3.30;;;17.70;38.10;;;;;;4956734;28;46372;-61
2022/05/12 04:22:08;;;;;;;4.40;2.90;;;17.70;38.00;;;;;;4959162;28;46467;-64
2022/05/12 04:24:34;;;;;;;6.27;3.90;;;17.80;38.00;;;;;;4958965;28;46550;-63
2022/05/12 04:26:59;;;;;;;9.60;3.17;;;17.80;37.90;;;;;;4955061;28;46517;-62
2022/05/12 04:29:25;;;;;;;7.33;3.10;;;17.90;37.80;;;;;;4961302;28;46521;-62
2022/05/12 04:31:51;;;;;;;6.03;3.10;;;18.00;37.70;;;;;;4956986;28;46428;-64
2022/05/12 04:37:01;;;;;;;12.93;3.23;;;18.10;37.50;;;;;;4958666;28;46746;-63
2022/05/12 04:39:27;;;;;;;5.80;3.00;;;18.10;37.50;;;;;;4959170;28;46479;-63
2022/05/12 04:41:52;;;;;;;6.30;3.50;;;18.10;37.50;;;;;;4962768;28;46469;-63
2022/05/12 04:44:19;;;;;;;5.90;3.00;;;18.20;37.50;;;;;;4962340;28;46308;-63
2022/05/12 04:46:45;;;;;;;5.83;3.00;;;18.20;37.50;;;;;;4944854;28;47125;-63
2022/05/12 04:49:11;;;;;;;9.00;3.50;;;18.30;37.60;;;;;;4961853;28;46375;-63
2022/05/12 04:51:38;;;;;;;6.67;3.50;;;18.30;37.50;;;;;;4963001;28;46419;-63
2022/05/12 04:54:09;;;;;;;12.50;3.10;;;18.40;37.50;;;;;;4961442;28;46358;-64
2022/05/12 04:56:36;;;;;;;11.10;3.70;;;18.40;37.60;;;;;;4961453;28;46640;-63
2022/05/12 04:59:01;;;;;;;9.60;3.43;;;18.50;37.50;;;;;;4960591;28;47125;-63
2022/05/12 05:01:27;;;;;;;10.10;3.70;;;18.60;37.70;;;;;;4958230;28;46478;-63
2022/05/12 05:03:52;;;;;;;5.83;3.73;;;18.60;37.70;;;;;;4960635;28;46787;-64
2022/05/12 05:06:18;;;;;;;12.13;3.40;;;18.60;37.70;;;;;;4961931;28;47259;-63
2022/05/12 05:08:44;;;;;;;6.30;3.20;;;18.60;37.70;;;;;;4960449;28;46352;-62
2022/05/12 05:11:09;;;;;;;11.70;3.27;;;18.60;37.50;;;;;;4956652;28;46528;-64
2022/05/12 05:13:35;;;;;;;9.50;3.43;;;18.70;37.60;;;;;;4960492;28;46716;-64
2022/05/12 05:16:02;;;;;;;15.70;3.27;;;18.70;37.50;;;;;;4960309;28;46622;-64
2022/05/12 05:18:27;;;;;;;6.23;3.30;;;18.80;37.50;;;;;;4957528;28;46307;-64
2022/05/12 05:20:53;;;;;;;5.50;3.20;;;18.90;37.40;;;;;;4960474;28;46443;-64
2022/05/12 05:23:21;;;;;;;7.30;3.33;;;19.00;37.20;;;;;;4960082;28;46215;-63
2022/05/12 05:25:48;;;;;;;10.03;3.40;;;19.10;37.10;;;;;;4960476;28;47284;-64
2022/05/12 05:28:14;;;;;;;7.50;3.20;;;19.20;36.80;;;;;;4958138;28;45808;-64
2022/05/12 05:30:41;;;;;;;5.50;2.93;;;19.40;36.60;;;;;;4957852;28;46351;-63
2022/05/12 05:33:07;;;;;;;6.13;3.00;;;19.50;37.70;;;;;;4959864;28;46347;-64
2022/05/12 05:35:34;;;;;;;8.23;3.00;;;19.70;36.40;;;;;;4960041;28;47206;-63
2022/05/12 05:38:00;;;;;;;4.87;3.13;;;19.70;36.10;;;;;;4959910;28;46324;-63
2022/05/12 05:40:26;;;;;;;7.93;3.10;;;19.80;36.00;;;;;;4956809;28;46375;-64
2022/05/12 05:42:53;;;;;;;5.50;3.00;;;19.90;36.10;;;;;;4960737;28;46791;-62
2022/05/12 05:45:19;;;;;;;6.20;2.97;;;19.90;36.00;;;;;;4962033;28;46261;-63
2022/05/12 05:47:54;;;;;;;10.30;3.47;;;19.90;35.80;;;;;;4961406;28;45792;-63
2022/05/12 05:50:23;;;;;;;7.50;3.40;;;20.10;35.60;;;;;;4961530;28;46398;-64
2022/05/12 05:55:34;;;;;;;11.33;3.57;;;20.90;34.90;;;;;;4960487;28;46679;-63
2022/05/12 05:58:01;;;;;;;6.40;2.90;;;21.50;34.10;;;;;;4960243;28;46420;-63
2022/05/12 06:00:27;;;;;;;8.13;3.30;;;21.90;32.70;;;;;;4960672;28;46478;-63
2022/05/12 06:02:53;;;;;;;4.73;2.87;;;22.20;32.30;;;;;;4960968;28;46570;-63
2022/05/12 06:05:19;;;;;;;11.63;3.10;;;22.60;31.60;;;;;;4961261;28;46324;-64
2022/05/12 06:07:45;;;;;;;5.93;2.73;;;22.70;31.10;;;;;;4961674;28;46499;-63
2022/05/12 06:10:12;;;;;;;9.43;3.27;;;22.40;31.40;;;;;;4960498;28;46456;-63
2022/05/12 06:12:38;;;;;;;5.53;3.00;;;22.10;31.50;;;;;;4961373;28;46645;-68
2022/05/12 06:15:05;;;;;;;7.47;2.77;;;21.60;32.30;;;;;;4961469;28;46374;-64
2022/05/12 06:17:30;;;;;;;8.20;3.60;;;21.40;32.90;;;;;;4961304;28;46445;-63
2022/05/12 06:19:56;;;;;;;8.37;3.70;;;21.20;33.20;;;;;;4960315;28;46395;-63
2022/05/12 06:22:22;;;;;;;6.20;2.90;;;21.00;33.00;;;;;;4961706;28;46382;-63
2022/05/12 06:24:49;;;;;;;7.80;3.10;;;21.10;32.70;;;;;;4957124;28;47130;-64
2022/05/12 06:27:16;;;;;;;11.17;2.97;;;21.10;32.50;;;;;;4959952;28;46367;-63
2022/05/12 06:29:44;;;;;;;5.40;3.00;;;21.20;32.10;;;;;;4966873;28;46434;-63
2022/05/12 06:32:10;;;;;;;7.17;3.17;;;21.00;32.10;;;;;;4958880;28;46277;-63
2022/05/12 06:34:36;;;;;;;8.87;2.80;;;20.90;32.10;;;;;;4960090;28;46362;-63
2022/05/12 06:37:03;;;;;;;6.67;2.83;;;21.10;31.60;;;;;;4959458;28;46492;-63
2022/05/12 06:39:29;;;;;;;9.53;3.07;;;22.20;29.50;;;;;;4959817;28;46509;-63
2022/05/12 06:41:56;;;;;;;5.17;2.30;;;23.20;28.60;;;;;;4961282;28;46316;-63
2022/05/12 06:44:22;;;;;;;8.13;3.17;;;23.50;28.50;;;;;;4960661;28;46375;-63
2022/05/12 06:46:47;;;;;;;8.30;2.60;;;23.60;28.80;;;;;;4959872;28;46428;-63
2022/05/12 06:49:13;;;;;;;7.53;2.60;;;23.50;29.30;;;;;;4959997;28;45828;-63
2022/05/12 06:51:39;;;;;;;4.70;2.37;;;23.60;29.50;;;;;;4960952;28;46524;-63
2022/05/12 06:54:05;;;;;;;9.73;3.07;;;23.50;28.80;;;;;;4960454;28;46347;-64
2022/05/12 06:56:30;;;;;;;7.03;2.80;;;23.40;28.50;;;;;;4959993;28;46299;-62
2022/05/12 06:58:56;;;;;;;10.70;3.17;;;23.20;28.30;;;;;;4959757;28;46386;-63
2022/05/12 07:01:21;;;;;;;8.73;2.77;;;23.00;28.40;;;;;;4960946;28;46011;-63
2022/05/12 07:03:48;;;;;;;9.87;2.67;;;23.00;28.30;;;;;;4960701;28;47015;-64
2022/05/12 07:06:13;;;;;;;7.60;2.70;;;23.00;28.30;;;;;;4961795;28;46419;-63
2022/05/12 07:08:41;;;;;;;7.97;3.20;;;23.00;28.20;;;;;;4961038;28;46427;-62
2022/05/12 07:11:07;;;;;;;5.83;2.67;;;22.80;27.90;;;;;;4964090;28;46499;-63
2022/05/12 07:13:33;;;;;;;8.27;3.07;;;22.90;27.90;;;;;;4963261;28;47452;-63
2022/05/12 07:16:00;;;;;;;5.40;2.73;;;23.20;27.90;;;;;;4963675;28;46352;-62
2022/05/12 07:18:26;;;;;;;14.43;3.10;;;23.10;27.50;;;;;;4963273;28;46459;-64
2022/05/12 07:26:39;;;;;;;11.90;2.63;;;23.60;27.30;;;;;;4950500;28;46599;-62
2022/05/12 07:29:11;;;;;;;8.50;3.03;;;23.70;27.40;;;;;;4962919;28;46404;-63
2022/05/12 07:31:36;;;;;;;16.83;3.63;;;23.50;27.40;;;;;;4963004;28;46412;-63
2022/05/12 07:34:03;;;;;;;8.80;2.90;;;23.60;27.40;;;;;;4961302;28;47285;-62
2022/05/12 07:36:32;;;;;;;11.27;2.90;;;23.80;27.10;;;;;;4963083;28;46283;-63
2022/05/12 07:38:58;;;;;;;7.53;2.70;;;23.70;27.00;;;;;;4962473;28;45852;-63
2022/05/12 07:41:24;;;;;;;4.77;2.47;;;23.60;27.10;;;;;;4964030;28;46345;-63
2022/05/12 07:43:51;;;;;;;5.93;2.67;;;23.70;27.00;;;;;;4963329;28;47495;-63
2022/05/12 07:46:21;;;;;;;12.10;3.23;;;23.90;26.70;;;;;;4962935;28;46414;-63
2022/05/12 07:48:48;;;;;;;7.87;2.73;;;24.10;26.50;;;;;;4960596;28;46386;-63
2022/05/12 07:51:14;;;;;;;7.50;2.93;;;24.30;25.70;;;;;;4963617;28;46368;-63
2022/05/12 07:53:40;;;;;;;10.63;3.23;;;24.10;25.90;;;;;;4963061;28;47107;-63
2022/05/12 07:56:07;;;;;;;6.00;3.20;;;24.10;26.60;;;;;;4963133;28;46400;-62
2022/05/12 07:58:33;;;;;;;12.53;3.10;;;24.50;26.60;;;;;;4960427;28;46361;-63
2022/05/12 08:00:59;;;;;;;9.20;2.50;;;24.60;26.20;;;;;;4963540;28;46289;-63
2022/05/12 08:03:26;;;;;;;10.30;3.40;;;24.80;26.20;;;;;;4963589;28;46399;-63
2022/05/12 08:05:52;;;;;;;10.67;2.83;;;24.90;25.90;;;;;;4963184;28;46364;-63
2022/05/12 08:08:18;;;;;;;9.53;3.07;;;25.00;26.00;;;;;;4963116;28;46419;-63
2022/05/12 08:10:44;;;;;;;6.10;2.70;;;25.10;26.00;;;;;;4961716;28;46598;-63
2022/05/12 08:13:15;;;;;;;13.00;3.40;;;24.70;25.70;;;;;;4961764;28;46108;-62
2022/05/12 08:15:46;;;;;;;6.93;3.23;;;24.20;25.60;;;;;;4960252;28;46423;-63
2022/05/12 08:18:16;;;;;;;6.37;2.57;;;23.80;26.40;;;;;;4962053;28;46375;-63
2022/05/12 08:20:43;;;;;;;8.50;2.60;;;24.00;26.90;;;;;;4961545;28;46407;-63
2022/05/12 08:23:10;;;;;;;10.43;3.10;;;24.20;26.50;;;;;;4962157;28;46516;-63
2022/05/12 08:25:36;;;;;;;8.73;2.77;;;24.10;26.90;;;;;;4961035;28;45797;-62
2022/05/12 08:28:03;;;;;;;4.23;2.60;;;24.20;27.30;;;;;;4960548;28;46426;-63
2022/05/12 08:30:30;;;;;;;12.63;3.07;;;24.20;27.30;;;;;;4962258;28;46383;-63
2022/05/12 08:32:57;;;;;;;7.40;3.10;;;24.40;26.40;;;;;;4960854;28;47396;-64
2022/05/12 08:35:23;;;;;;;7.13;3.17;;;24.50;26.30;;;;;;4962946;28;45800;-63
2022/05/12 08:37:48;;;;;;;7.13;3.20;;;24.70;25.70;;;;;;4962278;28;46637;-64
2022/05/12 08:40:22;;;;;;;11.10;3.23;;;24.90;25.90;;;;;;4962588;28;46284;-64
2022/05/12 08:42:48;;;;;;;7.00;3.30;;;25.10;26.00;;;;;;4962253;28;46760;-63
2022/05/12 08:45:16;;;;;;;6.97;2.70;;;25.20;26.10;;;;;;4962669;28;46320;-63
2022/05/12 08:47:45;;;;;;;6.30;3.10;;;25.40;26.00;;;;;;4961901;28;46418;-63
2022/05/12 08:50:26;;;;;;;8.63;3.60;;;25.50;25.70;;;;;;4962236;28;46443;-63
2022/05/12 08:53:12;;;;;;;8.60;3.43;;;25.30;26.10;;;;;;4961218;28;46297;-63
2022/05/12 08:55:53;;;;;;;12.73;3.20;;;25.60;25.30;;;;;;4959604;28;46213;-63
2022/05/12 08:58:26;;;;;;;10.60;3.17;;;25.80;25.30;;;;;;4961284;28;46495;-63
2022/05/12 09:01:14;;;;;;;5.83;2.80;;;26.00;24.50;;;;;;4961205;28;46336;-64
2022/05/12 09:03:42;;;;;;;6.30;3.30;;;25.80;24.20;;;;;;4959454;28;47189;-63
2022/05/12 09:06:34;;;;;;;8.23;3.37;;;26.00;24.30;;;;;;4960827;28;46462;-64
2022/05/12 09:08:59;;;;;;;6.20;3.60;;;26.10;24.20;;;;;;4960475;28;46340;-64
2022/05/12 09:11:42;;;;;;;7.03;3.10;;;26.10;24.70;;;;;;4961279;28;46403;-64
2022/05/12 09:14:35;;;;;;;5.83;3.30;;;26.00;24.30;;;;;;4959027;28;46657;-63
2022/05/12 09:17:02;;;;;;;7.70;3.30;;;25.40;25.10;;;;;;4959677;28;46245;-64
2022/05/12 09:19:29;;;;;;;11.67;3.63;;;25.10;26.00;;;;;;4960919;28;46351;-62
2022/05/12 09:21:55;;;;;;;5.70;3.30;;;25.30;25.60;;;;;;4959032;28;46501;-63
2022/05/12 09:24:21;;;;;;;10.63;4.60;;;25.30;25.70;;;;;;4961319;28;46449;-62
2022/05/12 09:26:53;;;;;;;6.13;3.40;;;25.70;25.50;;;;;;4961741;28;46411;-63
2022/05/12 09:29:33;;;;;;;10.67;3.73;;;25.90;25.30;;;;;;4961363;28;46359;-63
2022/05/12 09:32:04;;;;;;;7.57;3.30;;;25.80;25.40;;;;;;4960314;28;46375;-63
2022/05/12 09:34:39;;;;;;;10.83;4.00;;;25.90;26.40;;;;;;4960850;28;46407;-64
2022/05/12 09:37:17;;;;;;;8.80;3.90;;;25.80;26.40;;;;;;4959383;28;46375;-63
2022/05/12 09:39:55;;;;;;;9.63;4.13;;;25.50;26.20;;;;;;4961066;28;45837;-63
2022/05/12 09:42:29;;;;;;;10.27;4.20;;;25.50;26.20;;;;;;4962038;28;46351;-63
2022/05/12 09:45:15;;;;;;;10.17;3.07;;;25.80;26.40;;;;;;4960747;28;46341;-64
2022/05/12 09:47:41;;;;;;;11.20;3.73;;;26.00;26.50;;;;;;4961644;28;46387;-64
2022/05/12 09:50:16;;;;;;;8.10;3.10;;;26.20;25.50;;;;;;4960696;28;46358;-64
2022/05/12 09:52:57;;;;;;;9.00;3.40;;;26.30;25.20;;;;;;4961062;28;46419;-64
2022/05/12 09:55:33;;;;;;;6.17;3.70;;;26.40;25.00;;;;;;4957306;28;47049;-64
2022/05/12 09:58:13;;;;;;;10.93;5.17;;;26.40;24.70;;;;;;4960627;28;46506;-63
2022/05/12 10:00:48;;;;;;;8.53;3.50;;;26.30;24.50;;;;;;4960436;28;46152;-64
2022/05/12 10:09:13;;;;;;;14.80;4.30;;;26.40;24.60;;;;;;4959768;28;45882;-62
2022/05/12 10:12:16;;;;;;;7.10;3.47;;;26.30;24.70;;;;;;4961284;28;46479;-63
2022/05/12 10:14:49;;;;;;;9.30;3.57;;;26.30;24.40;;;;;;4959232;28;46470;-63
2022/05/12 10:17:42;;;;;;;5.33;3.30;;;26.40;24.10;;;;;;4958021;28;47255;-63
2022/05/12 10:20:18;;;;;;;7.40;3.60;;;26.30;24.90;;;;;;4959919;28;45789;-63
2022/05/12 10:22:58;;;;;;;7.40;3.73;;;26.30;25.60;;;;;;4960514;28;46363;-63
2022/05/12 10:25:27;;;;;;;10.60;3.47;;;26.10;25.60;;;;;;4959538;28;46427;-62
2022/05/12 10:28:02;;;;;;;8.60;3.77;;;26.10;25.80;;;;;;4960086;28;46598;-62
2022/05/12 10:30:45;;;;;;;5.97;3.10;;;26.10;25.90;;;;;;4960675;28;46348;-63
2022/05/12 10:33:24;;;;;;;8.40;3.90;;;26.20;25.00;;;;;;4957885;28;46445;-64
2022/05/12 10:36:15;;;;;;;7.43;3.37;;;26.10;26.40;;;;;;4958859;28;46296;-64
2022/05/12 10:38:45;;;;;;;9.10;3.70;;;26.20;26.60;;;;;;4958521;28;46328;-62
2022/05/12 10:41:29;;;;;;;9.83;3.20;;;26.20;26.00;;;;;;4961758;28;46457;-62
2022/05/12 10:44:06;;;;;;;8.43;3.60;;;26.00;25.60;;;;;;4963656;28;46422;-62
2022/05/12 10:46:57;;;;;;;7.53;3.30;;;25.50;26.20;;;;;;4964042;28;46406;-63
2022/05/12 10:49:32;;;;;;;8.93;3.50;;;25.20;26.10;;;;;;4962999;28;47076;-63
2022/05/12 10:52:40;;;;;;;8.73;3.83;;;25.00;27.10;;;;;;4964461;28;45753;-63
2022/05/12 10:55:18;;;;;;;10.50;4.00;;;25.00;27.20;;;;;;4959147;28;46045;-64
2022/05/12 10:58:02;;;;;;;10.83;3.43;;;24.90;28.10;;;;;;4962947;28;46399;-63
2022/05/12 11:00:57;;;;;;;15.37;3.57;;;24.80;27.40;;;;;;4960909;28;46537;-64
2022/05/12 11:03:32;;;;;;;9.60;3.97;;;25.00;27.50;;;;;;4962803;28;46359;-64
2022/05/12 11:06:03;;;;;;;11.23;3.80;;;24.80;27.30;;;;;;4962530;28;46619;-63
2022/05/12 11:08:36;;;;;;;8.87;3.70;;;25.10;27.20;;;;;;4977872;28;46402;-64
2022/05/12 11:11:10;;;;;;;8.90;3.40;;;25.20;26.60;;;;;;4961725;28;46506;-63
2022/05/12 11:13:51;;;;;;;7.43;4.40;;;25.00;27.40;;;;;;4960726;28;46489;-63
2022/05/12 11:16:23;;;;;;;9.33;4.43;;;25.00;27.40;;;;;;4963092;28;46424;-64
2022/05/12 11:19:05;;;;;;;7.70;3.60;;;24.60;27.30;;;;;;4961357;28;46304;-63
2022/05/12 11:21:36;;;;;;;7.70;3.80;;;24.70;28.30;;;;;;4962267;28;46121;-63
2022/05/12 11:24:21;;;;;;;9.10;4.13;;;24.90;27.60;;;;;;4962762;28;46378;-63
2022/05/12 11:26:53;;;;;;;15.77;4.03;;;25.50;27.00;;;;;;4962584;28;46179;-63
2022/05/12 11:29:48;;;;;;;10.37;3.60;;;25.80;27.10;;;;;;4957918;28;46444;-63
2022/05/12 11:32:46;;;;;;;8.90;3.80;;;25.90;26.40;;;;;;4959992;28;46225;-63
2022/05/12 11:35:18;;;;;;;26.93;4.63;;;25.50;26.20;;;;;;4962786;28;45768;-64
2022/05/12 11:37:44;;;;;;;15.33;4.20;;;25.30;26.70;;;;;;4964025;28;46379;-63
2022/05/12 11:40:13;;;;;;;8.07;4.23;;;25.10;26.90;;;;;;4962876;28;46273;-64
2022/05/12 11:45:50;;;;;;;6.80;4.27;;;25.70;26.30;;;;;;4962307;28;46341;-65
2022/05/12 11:48:35;;;;;;;6.20;3.90;;;25.80;26.40;;;;;;4961931;28;46386;-63
2022/05/12 11:51:45;;;;;;;11.03;3.97;;;25.30;26.10;;;;;;4960971;28;46444;-63
2022/05/12 11:54:22;;;;;;;8.00;3.30;;;25.10;28.20;;;;;;4927693;28;46589;-64
2022/05/12 11:56:49;;;;;;;8.20;3.87;;;24.90;28.00;;;;;;4961990;28;46379;-64
2022/05/12 11:59:28;;;;;;;10.00;4.33;;;25.00;27.20;;;;;;4960398;28;46323;-63
2022/05/12 12:02:01;;;;;;;8.53;4.20;;;24.90;27.30;;;;;;4963561;28;46396;-62
2022/05/12 12:04:39;;;;;;;8.90;4.00;;;24.90;27.70;;;;;;4963105;28;47273;-63
2022/05/12 12:07:06;;;;;;;8.40;3.87;;;25.00;28.00;;;;;;4963482;28;46384;-62
2022/05/12 12:09:38;;;;;;;8.97;3.80;;;25.20;28.50;;;;;;4962138;28;46482;-62
2022/05/12 12:12:07;;;;;;;7.63;4.17;;;25.30;27.10;;;;;;4959288;28;46386;-63
2022/05/12 12:14:51;;;;;;;14.43;4.33;;;25.20;26.50;;;;;;4962111;28;47056;-62
2022/05/12 12:17:25;;;;;;;8.43;4.10;;;25.10;26.00;;;;;;4962840;28;46624;-63
2022/05/12 12:19:53;;;;;;;9.60;4.37;;;25.10;26.70;;;;;;4962023;28;46292;-63
2022/05/12 12:22:35;;;;;;;6.33;4.23;;;25.30;27.00;;;;;;4962807;28;46338;-64
2022/05/12 12:25:04;;;;;;;5.50;3.57;;;25.50;27.00;;;;;;4962428;28;46354;-64
2022/05/12 12:27:40;;;;;;;10.87;3.97;;;25.80;26.50;;;;;;4962777;28;46441;-63
2022/05/12 12:30:24;;;;;;;8.50;4.20;;;25.90;26.50;;;;;;4961979;28;46308;-64
2022/05/12 12:33:18;;;;;;;6.10;4.00;;;26.00;26.10;;;;;;4961354;28;46506;-62
2022/05/12 12:36:01;;;;;;;6.70;4.00;;;25.80;26.40;;;;;;4962436;28;47216;-64
2022/05/12 12:38:45;;;;;;;5.83;3.90;;;25.80;26.40;;;;;;4962101;28;46407;-63
2022/05/12 12:41:30;;;;;;;12.00;4.00;;;25.80;25.30;;;;;;4962443;28;45901;-62
2022/05/12 12:44:03;;;;;;;9.20;3.70;;;25.60;25.50;;;;;;4962141;28;46399;-62
2022/05/12 12:47:08;;;;;;;8.63;4.30;;;25.90;25.60;;;;;;4960568;28;46491;-63
2022/05/12 12:50:02;;;;;;;8.70;4.20;;;25.90;25.30;;;;;;4962034;28;46433;-63
2022/05/12 12:52:27;;;;;;;10.43;4.33;;;25.80;25.50;;;;;;4962413;28;46359;-63
2022/05/12 12:57:47;;;;;;;8.23;4.27;;;26.20;26.60;;;;;;4960713;28;46375;-63
2022/05/12 13:00:34;;;;;;;9.13;4.17;;;26.30;25.30;;;;;;4961175;28;46407;-63
2022/05/12 13:03:28;;;;;;;8.90;3.97;;;26.30;25.90;;;;;;4961054;28;46352;-62
2022/05/12 13:06:09;;;;;;;6.20;3.97;;;26.30;24.30;;;;;;4961445;28;46426;-63
2022/05/12 13:08:35;;;;;;;8.10;3.87;;;25.90;24.00;;;;;;4961068;28;46328;-62
2022/05/12 13:11:05;;;;;;;8.40;4.00;;;25.70;24.30;;;;;;4962314;28;46372;-63
2022/05/12 13:13:31;;;;;;;6.83;3.47;;;26.10;24.50;;;;;;4960656;28;46352;-63
2022/05/12 13:16:00;;;;;;;5.43;3.40;;;26.40;24.30;;;;;;4962947;28;46376;-63
2022/05/12 13:18:34;;;;;;;14.30;3.80;;;26.50;24.50;;;;;;4961308;28;47315;-63
2022/05/12 13:21:03;;;;;;;9.10;3.73;;;26.30;24.20;;;;;;4959825;28;46370;-63
2022/05/12 13:23:40;;;;;;;7.77;3.40;;;25.90;23.80;;;;;;4961178;28;46371;-64
2022/05/12 13:26:07;;;;;;;6.70;3.60;;;25.90;24.10;;;;;;4961815;28;46390;-64